createdAt,value
2022-12-22T00:01:54.616Z,2.29
2022-12-22T00:04:40.283Z,2.24
2022-12-22T00:07:25.341Z,2.21
2022-12-22T00:10:10.765Z,2.22
2022-12-22T00:12:55.718Z,2.23
2022-12-22T00:15:40.966Z,2.18
2022-12-22T00:18:32.619Z,2.29
2022-12-22T00:21:17.819Z,2.30
2022-12-22T00:24:02.882Z,2.30
2022-12-22T00:26:49.528Z,2.36
2022-12-22T00:29:35.058Z,2.33
2022-12-22T00:32:21.090Z,2.36
2022-12-22T00:35:06.593Z,2.26
2022-12-22T00:37:56.086Z,2.31
2022-12-22T00:40:45.483Z,2.39
2022-12-22T00:43:31.217Z,2.39
2022-12-22T00:46:17.629Z,2.32
2022-12-22T00:49:03.401Z,2.35
2022-12-22T00:51:48.970Z,2.43
2022-12-22T00:54:35.662Z,2.45
2022-12-22T00:57:20.835Z,2.43
2022-12-22T01:00:07.739Z,2.35
2022-12-22T01:02:53.210Z,2.32
2022-12-22T01:05:38.624Z,2.28
2022-12-22T01:08:23.797Z,2.40
2022-12-22T01:11:08.900Z,2.40
2022-12-22T01:13:53.907Z,2.25
2022-12-22T01:16:39.077Z,2.31
2022-12-22T01:19:24.294Z,2.36
2022-12-22T01:22:09.372Z,2.41
2022-12-22T01:24:54.746Z,2.40
2022-12-22T01:27:40.312Z,2.42
2022-12-22T01:30:26.457Z,2.41
2022-12-22T01:33:11.981Z,2.41
2022-12-22T01:35:57.316Z,2.38
2022-12-22T01:38:42.602Z,2.41
2022-12-22T01:41:32.141Z,2.42
2022-12-22T01:44:17.470Z,2.43
2022-12-22T01:47:04.627Z,2.46
2022-12-22T01:50:00.511Z,2.45
2022-12-22T01:52:51.732Z,2.49
2022-12-22T01:55:40.003Z,2.53
2022-12-22T01:58:33.212Z,2.47
2022-12-22T02:01:18.691Z,2.57
2022-12-22T02:04:04.012Z,2.61
2022-12-22T02:06:56.250Z,2.49
2022-12-22T02:10:07.862Z,2.53
2022-12-22T02:13:06.318Z,2.56
2022-12-22T02:15:55.564Z,2.56
2022-12-22T02:18:49.600Z,2.52
2022-12-22T02:21:40.626Z,2.53
2022-12-22T02:24:32.018Z,2.51
2022-12-22T02:27:18.204Z,2.59
2022-12-22T02:30:25.117Z,2.60
2022-12-22T02:33:10.459Z,2.54
2022-12-22T02:36:07.907Z,2.54
2022-12-22T02:39:17.141Z,2.53
2022-12-22T02:42:13.622Z,2.48
2022-12-22T02:45:13.253Z,2.51
2022-12-22T02:48:20.434Z,2.49
2022-12-22T02:51:12.490Z,2.42
2022-12-22T02:53:58.573Z,2.50
2022-12-22T02:56:44.160Z,2.49
2022-12-22T02:59:29.718Z,2.48
2022-12-22T03:02:14.926Z,2.52
2022-12-22T03:05:00.245Z,2.49
2022-12-22T03:07:45.402Z,2.51
2022-12-22T03:10:30.827Z,2.50
2022-12-22T03:13:19.029Z,2.60
2022-12-22T03:16:04.481Z,2.58
2022-12-22T03:18:49.673Z,2.54
2022-12-22T03:21:35.143Z,2.53
2022-12-22T03:24:20.308Z,2.59
2022-12-22T03:26:46.975Z,2.62
2022-12-22T03:29:13.586Z,2.65
2022-12-22T03:31:40.263Z,2.67
2022-12-22T03:34:06.819Z,2.67
2022-12-22T03:36:33.422Z,2.62
2022-12-22T03:38:59.940Z,2.68
2022-12-22T03:41:55.558Z,2.67
2022-12-22T03:44:40.386Z,2.77
2022-12-22T03:47:06.981Z,2.77
2022-12-22T03:49:33.466Z,2.71
2022-12-22T03:51:59.936Z,2.75
2022-12-22T03:54:26.494Z,2.76
2022-12-22T03:56:53.554Z,2.76
2022-12-22T03:59:20.412Z,2.74
2022-12-22T04:01:49.801Z,2.74
2022-12-22T04:04:18.453Z,2.75
2022-12-22T04:06:45.501Z,2.80
2022-12-22T04:09:12.382Z,2.83
2022-12-22T04:11:57.811Z,2.80
2022-12-22T04:14:31.325Z,2.73
2022-12-22T04:17:00.621Z,2.79
2022-12-22T04:19:27.356Z,2.82
2022-12-22T04:21:54.464Z,2.91
2022-12-22T04:24:21.021Z,2.92
2022-12-22T04:26:47.470Z,2.89
2022-12-22T04:29:13.991Z,2.94
2022-12-22T04:31:40.906Z,2.83
2022-12-22T04:34:07.552Z,2.89
2022-12-22T04:36:34.512Z,2.89
2022-12-22T04:39:01.032Z,2.84
2022-12-22T04:41:27.515Z,2.99
2022-12-22T04:43:54.112Z,2.94
2022-12-22T04:46:20.789Z,3.04
2022-12-22T04:48:47.386Z,3.12
2022-12-22T04:51:13.845Z,3.08
2022-12-22T04:53:40.521Z,3.13
2022-12-22T04:56:07.968Z,3.11
2022-12-22T04:58:34.927Z,3.00
2022-12-22T05:01:13.949Z,2.88
2022-12-22T05:03:40.910Z,2.87
2022-12-22T05:06:07.867Z,3.01
2022-12-22T05:08:34.711Z,2.94
2022-12-22T05:11:02.834Z,2.90
2022-12-22T05:13:32.717Z,2.93
2022-12-22T05:16:10.926Z,2.94
2022-12-22T05:18:38.377Z,2.97
2022-12-22T05:21:13.449Z,2.94
2022-12-22T05:23:40.628Z,2.89
2022-12-22T05:26:07.721Z,3.03
2022-12-22T05:28:34.374Z,2.98
2022-12-22T05:31:08.784Z,3.01
2022-12-22T05:33:35.575Z,3.04
2022-12-22T05:36:02.735Z,2.97
2022-12-22T05:38:29.380Z,2.95
2022-12-22T05:41:03.200Z,3.07
2022-12-22T05:43:31.196Z,3.00
2022-12-22T05:45:58.644Z,3.11
2022-12-22T05:48:30.848Z,3.14
2022-12-22T05:51:00.487Z,3.13
2022-12-22T05:53:27.062Z,3.18
2022-12-22T05:55:53.556Z,3.14
2022-12-22T05:58:20.169Z,3.19
2022-12-22T06:00:46.716Z,3.20
2022-12-22T06:03:13.665Z,3.20
2022-12-22T06:05:40.607Z,3.18
2022-12-22T06:08:07.156Z,3.20
2022-12-22T06:10:33.615Z,3.16
2022-12-22T06:13:00.272Z,3.28
2022-12-22T06:15:26.731Z,3.26
2022-12-22T06:17:54.301Z,3.28
2022-12-22T06:20:20.895Z,3.27
2022-12-22T06:22:47.390Z,3.20
2022-12-22T06:25:18.370Z,3.23
2022-12-22T06:27:46.065Z,3.27
2022-12-22T06:30:13.073Z,3.24
2022-12-22T06:32:40.019Z,3.14
2022-12-22T06:35:07.550Z,3.26
2022-12-22T06:37:34.062Z,3.22
2022-12-22T06:40:00.557Z,3.34
2022-12-22T06:42:45.793Z,3.39
2022-12-22T06:45:12.460Z,3.32
2022-12-22T06:47:38.987Z,3.34
2022-12-22T06:50:06.313Z,3.22
2022-12-22T06:52:32.823Z,3.15
2022-12-22T06:54:59.326Z,3.26
2022-12-22T06:57:25.775Z,3.30
2022-12-22T06:59:57.274Z,3.23
2022-12-22T07:02:24.337Z,3.33
2022-12-22T07:04:50.948Z,3.37
2022-12-22T07:07:17.449Z,3.27
2022-12-22T07:09:44.107Z,3.42
2022-12-22T07:12:10.632Z,3.36
2022-12-22T07:14:37.112Z,3.32
2022-12-22T07:17:03.774Z,3.39
2022-12-22T07:19:32.738Z,3.37
2022-12-22T07:21:59.369Z,3.37
2022-12-22T07:24:26.786Z,3.40
2022-12-22T07:26:53.469Z,3.24
2022-12-22T07:29:20.473Z,3.34
2022-12-22T07:31:47.284Z,3.30
2022-12-22T07:34:14.135Z,3.39
2022-12-22T07:36:41.079Z,3.43
2022-12-22T07:39:07.778Z,3.36
2022-12-22T07:41:53.050Z,3.35
2022-12-22T07:44:19.719Z,3.44
2022-12-22T07:46:46.282Z,3.21
2022-12-22T07:49:31.828Z,3.28
2022-12-22T07:51:59.221Z,3.37
2022-12-22T07:54:26.710Z,3.23
2022-12-22T07:56:53.661Z,3.30
2022-12-22T07:59:20.507Z,3.38
2022-12-22T08:01:47.230Z,3.30
2022-12-22T08:04:14.481Z,3.31
2022-12-22T08:06:41.615Z,3.43
2022-12-22T08:09:08.806Z,3.38
2022-12-22T08:11:35.647Z,3.49
2022-12-22T08:14:02.501Z,3.43
2022-12-22T08:16:29.819Z,3.59
2022-12-22T08:18:56.587Z,3.54
2022-12-22T08:21:23.567Z,3.59
2022-12-22T08:23:50.104Z,3.61
2022-12-22T08:26:22.158Z,3.65
2022-12-22T08:28:53.007Z,3.71
2022-12-22T08:31:19.973Z,3.84
2022-12-22T08:33:48.131Z,3.92
2022-12-22T08:36:14.893Z,4.01
2022-12-22T08:38:43.083Z,4.14
2022-12-22T08:41:10.955Z,4.18
2022-12-22T08:43:37.661Z,4.22
2022-12-22T08:46:04.309Z,4.18
2022-12-22T08:48:32.947Z,4.33
2022-12-22T08:50:59.766Z,4.38
2022-12-22T08:54:02.507Z,4.32
2022-12-22T08:56:12.811Z,4.51
2022-12-22T08:58:40.303Z,4.54
2022-12-22T09:01:06.973Z,5.01
2022-12-22T09:03:33.838Z,6.53
2022-12-22T09:06:03.882Z,7.56
2022-12-22T09:08:33.183Z,6.93
2022-12-22T09:11:04.009Z,6.15
2022-12-22T09:13:31.248Z,5.67
2022-12-22T09:15:58.174Z,5.53
2022-12-22T09:18:25.392Z,5.56
2022-12-22T09:20:55.734Z,5.61
2022-12-22T09:23:22.368Z,5.73
2022-12-22T09:25:48.890Z,5.90
2022-12-22T09:28:15.549Z,5.77
2022-12-22T09:30:42.108Z,5.24
2022-12-22T09:33:08.756Z,5.00
2022-12-22T09:35:35.294Z,4.81
2022-12-22T09:38:01.868Z,4.80
2022-12-22T09:40:28.335Z,4.58
2022-12-22T09:42:54.850Z,4.48
2022-12-22T09:45:21.445Z,4.41
2022-12-22T09:47:53.777Z,4.25
2022-12-22T09:50:25.065Z,4.22
2022-12-22T09:53:01.642Z,4.37
2022-12-22T09:55:49.011Z,4.37
2022-12-22T09:58:28.907Z,4.35
2022-12-22T10:01:02.160Z,4.33
2022-12-22T10:03:46.203Z,4.19
2022-12-22T10:06:23.396Z,4.21
2022-12-22T10:08:49.910Z,4.12
2022-12-22T10:11:18.711Z,3.94
2022-12-22T10:13:45.895Z,3.91
2022-12-22T10:16:19.591Z,4.00
2022-12-22T10:18:57.611Z,4.11
2022-12-22T10:21:24.489Z,4.22
2022-12-22T10:23:52.170Z,4.22
2022-12-22T10:26:29.569Z,4.22
2022-12-22T10:29:04.675Z,4.26
2022-12-22T10:31:33.080Z,4.11
2022-12-22T10:34:10.882Z,4.10
2022-12-22T10:36:37.518Z,4.09
2022-12-22T10:39:05.330Z,4.12
2022-12-22T10:41:46.365Z,4.12
2022-12-22T10:44:15.558Z,4.13
2022-12-22T10:46:48.372Z,4.11
2022-12-22T10:49:23.618Z,4.09
2022-12-22T10:51:55.568Z,4.06
2022-12-22T10:54:33.911Z,4.00
2022-12-22T10:57:06.289Z,4.10
2022-12-22T10:59:34.014Z,3.99
2022-12-22T11:02:25.933Z,3.87
2022-12-22T11:04:53.633Z,3.77
2022-12-22T11:07:21.081Z,3.80
2022-12-22T11:09:47.766Z,3.85
2022-12-22T11:12:55.838Z,4.04
2022-12-22T11:15:34.123Z,4.12
2022-12-22T11:18:00.596Z,4.08
2022-12-22T11:21:09.321Z,4.19
2022-12-22T11:24:02.751Z,4.20
2022-12-22T11:26:48.034Z,4.06
2022-12-22T11:29:44.364Z,3.95
2022-12-22T11:32:25.537Z,4.08
2022-12-22T11:34:59.462Z,4.10
2022-12-22T11:37:38.863Z,4.21
2022-12-22T11:40:24.680Z,4.23
2022-12-22T11:43:23.520Z,4.20
2022-12-22T11:46:34.893Z,4.25
2022-12-22T11:49:26.859Z,4.30
2022-12-22T11:52:17.587Z,4.31
2022-12-22T11:55:29.616Z,4.26
2022-12-22T11:58:14.318Z,4.35
2022-12-22T12:01:14.029Z,4.58
2022-12-22T12:04:07.082Z,4.63
2022-12-22T12:07:05.682Z,4.75
2022-12-22T12:09:58.316Z,4.84
2022-12-22T12:12:43.426Z,4.81
2022-12-22T12:15:24.541Z,4.95
2022-12-22T12:18:16.142Z,4.93
2022-12-22T12:21:04.078Z,4.87
2022-12-22T12:24:03.095Z,4.70
2022-12-22T12:26:37.751Z,4.79
2022-12-22T12:29:17.403Z,4.83
2022-12-22T12:31:47.385Z,4.76
2022-12-22T12:34:16.584Z,4.77
2022-12-22T12:36:51.572Z,4.72
2022-12-22T12:39:29.395Z,4.70
2022-12-22T12:42:01.606Z,4.69
2022-12-22T12:44:35.664Z,4.67
2022-12-22T12:47:35.260Z,4.70
2022-12-22T12:50:30.901Z,4.67
2022-12-22T12:52:57.522Z,4.42
2022-12-22T12:55:32.848Z,4.40
2022-12-22T12:58:02.371Z,4.27
2022-12-22T13:00:35.029Z,4.22
2022-12-22T13:03:08.301Z,4.05
2022-12-22T13:05:36.768Z,3.75
2022-12-22T13:08:14.824Z,3.74
2022-12-22T13:10:45.975Z,3.66
2022-12-22T13:13:22.075Z,3.48
2022-12-22T13:15:51.331Z,3.42
2022-12-22T13:18:26.799Z,3.52
2022-12-22T13:21:12.332Z,3.47
2022-12-22T13:24:23.646Z,3.40
2022-12-22T13:26:45.586Z,3.36
2022-12-22T13:29:29.682Z,3.24
2022-12-22T13:32:12.447Z,3.25
2022-12-22T13:35:20.578Z,3.24
2022-12-22T13:37:40.684Z,3.21
2022-12-22T13:40:19.865Z,3.15
2022-12-22T13:42:47.505Z,3.18
2022-12-22T13:45:37.031Z,3.29
2022-12-22T13:48:10.436Z,3.16
2022-12-22T13:50:41.603Z,3.24
2022-12-22T13:53:10.237Z,3.26
2022-12-22T13:55:37.846Z,3.23
2022-12-22T13:58:07.985Z,3.29
2022-12-22T14:00:35.015Z,3.31
2022-12-22T14:03:01.848Z,3.35
2022-12-22T14:05:35.234Z,3.34
2022-12-22T14:08:06.587Z,3.40
2022-12-22T14:10:36.179Z,3.44
2022-12-22T14:13:06.645Z,3.47
2022-12-22T14:15:33.459Z,3.41
2022-12-22T14:18:00.110Z,3.48
2022-12-22T14:20:37.049Z,3.54
2022-12-22T14:23:26.923Z,3.59
2022-12-22T14:25:54.105Z,3.59
2022-12-22T14:28:43.566Z,3.69
2022-12-22T14:31:12.984Z,3.69
2022-12-22T14:33:54.424Z,3.73
2022-12-22T14:36:27.394Z,3.79
2022-12-22T14:39:02.356Z,3.84
2022-12-22T14:41:51.719Z,3.81
2022-12-22T14:44:22.947Z,3.77
2022-12-22T14:47:09.865Z,3.74
2022-12-22T14:49:43.380Z,3.68
2022-12-22T14:52:19.030Z,3.69
2022-12-22T14:54:47.965Z,3.65
2022-12-22T14:57:16.745Z,3.79
2022-12-22T14:59:57.937Z,3.71
2022-12-22T15:02:38.620Z,3.71
2022-12-22T15:05:15.145Z,3.73
2022-12-22T15:08:05.219Z,3.70
2022-12-22T15:10:39.026Z,3.66
2022-12-22T15:13:10.738Z,3.55
2022-12-22T15:15:37.303Z,3.57
2022-12-22T15:18:03.951Z,3.51
2022-12-22T15:20:38.561Z,3.55
2022-12-22T15:23:11.526Z,3.56
2022-12-22T15:25:38.020Z,3.52
2022-12-22T15:28:04.666Z,3.60
2022-12-22T15:30:35.336Z,3.52
2022-12-22T15:33:02.175Z,3.54
2022-12-22T15:35:34.640Z,3.59
2022-12-22T15:38:01.411Z,3.55
2022-12-22T15:40:28.792Z,3.52
2022-12-22T15:42:55.483Z,3.60
2022-12-22T15:45:22.627Z,3.59
2022-12-22T15:47:51.717Z,3.61
2022-12-22T15:50:22.207Z,3.63
2022-12-22T15:52:50.917Z,3.59
2022-12-22T15:55:18.145Z,3.51
2022-12-22T15:57:44.905Z,3.58
2022-12-22T16:00:15.224Z,3.59
2022-12-22T16:02:42.203Z,3.59
2022-12-22T16:05:09.686Z,3.66
2022-12-22T16:07:36.829Z,3.63
2022-12-22T16:10:05.049Z,3.59
2022-12-22T16:12:37.316Z,3.59
2022-12-22T16:15:04.217Z,3.64
2022-12-22T16:17:32.700Z,3.58
2022-12-22T16:20:00.423Z,3.58
2022-12-22T16:22:32.613Z,3.60
2022-12-22T16:25:00.821Z,3.61
2022-12-22T16:27:27.590Z,3.70
2022-12-22T16:29:54.792Z,3.64
2022-12-22T16:32:23.595Z,3.64
2022-12-22T16:34:50.083Z,3.68
2022-12-22T16:37:16.650Z,3.73
2022-12-22T16:39:43.316Z,3.75
2022-12-22T16:44:58.652Z,3.67
2022-12-22T16:47:27.394Z,3.79
2022-12-22T16:49:54.215Z,3.68
2022-12-22T16:52:24.941Z,3.68
2022-12-22T16:54:52.955Z,3.70
2022-12-22T16:57:19.655Z,3.76
2022-12-22T16:59:46.164Z,3.83
2022-12-22T17:02:24.495Z,3.80
2022-12-22T17:04:51.854Z,3.77
2022-12-22T17:07:18.568Z,3.79
2022-12-22T17:09:52.857Z,3.79
2022-12-22T17:12:22.703Z,3.83
2022-12-22T17:14:49.657Z,3.88
2022-12-22T17:17:30.846Z,3.78
2022-12-22T17:19:59.729Z,3.87
2022-12-22T17:22:31.525Z,3.95
2022-12-22T17:25:00.905Z,3.88
2022-12-22T17:27:32.930Z,3.87
2022-12-22T17:30:05.322Z,3.95
2022-12-22T17:32:35.073Z,4.03
2022-12-22T17:35:02.609Z,3.99
2022-12-22T17:37:29.225Z,4.02
2022-12-22T17:40:00.671Z,4.13
2022-12-22T17:42:27.619Z,4.12
2022-12-22T17:44:54.213Z,4.15
2022-12-22T17:47:29.079Z,4.20
2022-12-22T17:49:58.638Z,4.06
2022-12-22T17:52:27.113Z,4.11
2022-12-22T17:54:53.975Z,4.25
2022-12-22T17:57:24.602Z,4.20
2022-12-22T17:59:51.152Z,4.29
2022-12-22T18:02:20.593Z,4.36
2022-12-22T18:04:48.371Z,4.43
2022-12-22T18:07:17.190Z,4.37
2022-12-22T18:09:45.378Z,4.41
2022-12-22T18:12:22.462Z,4.49
2022-12-22T18:14:50.076Z,4.48
2022-12-22T18:17:33.388Z,4.51
2022-12-22T18:20:01.849Z,4.43
2022-12-22T18:22:29.405Z,4.60
2022-12-22T18:24:56.552Z,4.56
2022-12-22T18:27:23.937Z,4.57
2022-12-22T18:29:50.832Z,4.52
2022-12-22T18:32:27.558Z,4.58
2022-12-22T18:34:54.648Z,4.49
2022-12-22T18:37:21.294Z,4.59
2022-12-22T18:39:47.877Z,4.43
2022-12-22T18:42:21.498Z,4.54
2022-12-22T18:44:48.569Z,4.62
2022-12-22T18:47:15.291Z,4.67
2022-12-22T18:49:42.284Z,4.61
2022-12-22T18:52:19.750Z,4.63
2022-12-22T18:54:46.551Z,4.61
2022-12-22T18:57:17.860Z,4.63
2022-12-22T18:59:45.141Z,4.63
2022-12-22T19:02:25.235Z,4.65
2022-12-22T19:04:52.432Z,4.62
2022-12-22T19:07:21.705Z,4.58
2022-12-22T19:09:49.126Z,4.64
2022-12-22T19:12:18.175Z,4.66
2022-12-22T19:14:46.745Z,4.62
2022-12-22T19:17:21.838Z,4.78
2022-12-22T19:19:48.449Z,4.76
2022-12-22T19:22:15.939Z,4.76
2022-12-22T19:24:45.012Z,4.65
2022-12-22T19:27:22.080Z,4.69
2022-12-22T19:29:48.905Z,4.70
2022-12-22T19:32:23.877Z,4.72
2022-12-22T19:34:50.687Z,4.73
2022-12-22T19:37:18.529Z,4.69
2022-12-22T19:39:45.609Z,4.68
2022-12-22T19:42:15.584Z,4.72
2022-12-22T19:44:43.088Z,4.68
2022-12-22T19:47:17.191Z,4.65
2022-12-22T19:49:43.675Z,4.64
2022-12-22T19:52:10.628Z,4.67
2022-12-22T19:54:37.916Z,4.65
2022-12-22T19:57:06.540Z,4.66
2022-12-22T19:59:38.970Z,4.54
2022-12-22T20:02:23.596Z,4.57
2022-12-22T20:04:50.782Z,4.69
2022-12-22T20:07:27.801Z,4.74
2022-12-22T20:09:54.557Z,4.75
2022-12-22T20:12:23.768Z,4.72
2022-12-22T20:14:51.024Z,4.70
2022-12-22T20:17:21.798Z,4.78
2022-12-22T20:19:51.789Z,4.75
2022-12-22T20:22:19.672Z,4.73
2022-12-22T20:24:46.928Z,4.78
2022-12-22T20:27:19.064Z,4.79
2022-12-22T20:29:45.627Z,4.89
2022-12-22T20:32:15.532Z,4.84
2022-12-22T20:34:42.538Z,4.83
2022-12-22T20:37:16.578Z,4.85
2022-12-22T20:39:43.821Z,4.66
2022-12-22T20:42:21.480Z,4.81
2022-12-22T20:45:03.224Z,4.87
2022-12-22T20:47:35.053Z,4.89
2022-12-22T20:50:01.715Z,4.84
2022-12-22T20:52:28.292Z,4.92
2022-12-22T20:54:55.026Z,4.81
2022-12-22T20:57:21.780Z,4.84
2022-12-22T20:59:55.752Z,4.87
2022-12-22T21:02:25.223Z,4.83
2022-12-22T21:04:52.018Z,4.86
2022-12-22T21:07:18.638Z,4.80
2022-12-22T21:09:45.316Z,4.88
2022-12-22T21:12:11.918Z,4.92
2022-12-22T21:14:38.486Z,4.84
2022-12-22T21:17:05.287Z,4.90
2022-12-22T21:19:35.362Z,4.83
2022-12-22T21:22:02.060Z,4.81
2022-12-22T21:24:32.112Z,4.89
2022-12-22T21:26:58.658Z,4.84
2022-12-22T21:29:27.154Z,4.86
2022-12-22T21:31:53.980Z,4.92
2022-12-22T21:34:21.068Z,4.89
2022-12-22T21:36:50.149Z,4.94
2022-12-22T21:39:32.651Z,4.96
2022-12-22T21:42:04.537Z,4.96
2022-12-22T21:44:34.034Z,4.94
2022-12-22T21:47:01.094Z,5.04
2022-12-22T21:49:32.071Z,5.02
2022-12-22T21:51:58.817Z,4.96
2022-12-22T21:54:25.821Z,4.98
2022-12-22T21:56:53.532Z,4.94
2022-12-22T21:59:20.268Z,4.95
2022-12-22T22:01:47.205Z,4.94
2022-12-22T22:04:13.922Z,4.91
2022-12-22T22:06:40.847Z,4.88
2022-12-22T22:09:07.593Z,4.97
2022-12-22T22:11:54.184Z,4.86
2022-12-22T22:14:21.049Z,4.91
2022-12-22T22:16:47.714Z,4.92
2022-12-22T22:19:14.455Z,4.88
2022-12-22T22:21:40.936Z,4.98
2022-12-22T22:24:07.546Z,5.00
2022-12-22T22:26:34.191Z,4.98
2022-12-22T22:29:01.109Z,4.94
2022-12-22T22:31:27.765Z,4.92
2022-12-22T22:33:54.470Z,4.97
2022-12-22T22:36:21.438Z,5.02
2022-12-22T22:38:51.015Z,4.94
2022-12-22T22:41:17.601Z,4.90
2022-12-22T22:43:44.130Z,4.89
2022-12-22T22:46:10.683Z,4.93
2022-12-22T22:48:37.319Z,4.92
2022-12-22T22:51:04.095Z,4.86
2022-12-22T22:53:30.944Z,4.79
2022-12-22T22:56:02.355Z,4.78
2022-12-22T22:58:29.557Z,4.74
2022-12-22T23:00:56.405Z,4.78
2022-12-22T23:03:23.243Z,4.76
2022-12-22T23:05:49.886Z,4.80
2022-12-22T23:08:16.417Z,4.76
2022-12-22T23:10:49.310Z,4.74
2022-12-22T23:13:15.751Z,4.71
2022-12-22T23:15:42.295Z,4.63
2022-12-22T23:18:08.969Z,4.69
2022-12-22T23:20:35.413Z,4.55
2022-12-22T23:23:02.008Z,4.51
2022-12-22T23:25:28.495Z,4.43
2022-12-22T23:27:55.068Z,4.41
2022-12-22T23:30:21.593Z,4.56
2022-12-22T23:32:48.143Z,4.43
2022-12-22T23:35:14.625Z,4.47
2022-12-22T23:37:41.294Z,4.51
2022-12-22T23:40:41.786Z,4.43
2022-12-22T23:42:56.974Z,4.36
2022-12-22T23:45:24.063Z,4.37
2022-12-22T23:47:50.618Z,4.38
2022-12-22T23:50:17.299Z,4.38
2022-12-22T23:52:48.925Z,4.39
2022-12-22T23:55:15.865Z,4.36
2022-12-22T23:57:42.337Z,4.38
